Latest Coastal Weather Observations for Wilsons Promontory

IDV60701

Issued at 7:31 am EST Sunday 22 September 2019 (issued every 10 minutes, with the page automatically refreshed every 10 minutes)

About coastal observations | Map of coastal stations | Coastal observations for VIC | Marine services | Other Formats
Station Details ID: 085096 Name: WILSONS PROMONTORY LIGHTHOUSE Lat: -39.13 Lon: 146.42 Height: 95.0 m
Data from the previous 72 hours. | See also: Recent months at Wilsons Promontory
Date/Time
EST
Wind Sea
Height
m
Swell Vis
km
Cloud Weather Temp
°C
Press
hPa
Rain since
9am
mm
Dir  Spd
kts
Gust
kts
Height
m
Period
s
Dir
22/07:30am W 15 28 - - - - - - - 9.7 1019.6 5.4
22/07:00am W 12 21 - - - - - - - 9.9 1019.7 5.4
22/06:30am W 12 18 - - - - - - - 9.3 1019.2 5.4
22/06:00am W 16 27 - - - - - - - 9.0 1018.8 5.4
22/05:30am W 17 28 - - - - - - - 8.5 1018.4 5.2
22/05:02am W 16 26 - - - - - - - 9.8 1017.5 4.4
22/05:00am W 15 20 - - - - - - - 9.9 1017.6 4.4
22/04:30am W 16 24 - - - - - - - 10.0 1017.4 4.4
22/04:00am W 16 22 - - - - - - - 9.8 1017.1 4.4
22/03:36am W 18 28 - - - - - - - 9.8 1017.1 4.4
22/03:30am W 19 28 - - - - - - - 9.7 1016.8 4.4
22/03:14am W 16 26 - - - - - - - 9.7 1016.7 4.4
22/03:00am W 18 25 - - - - - - - 9.5 1017.0 4.4
22/02:42am W 16 26 - - - - - - - 9.2 1016.8 4.4
22/02:30am W 18 27 - - - - - - - 8.7 1016.7 4.4
22/02:00am W 19 29 - - - - - - - 9.8 1016.4 4.2
22/01:30am W 19 29 - - - - - - - 9.7 1016.5 4.2
22/01:00am W 17 24 - - - - - - - 10.3 1016.3 4.0
22/12:33am W 19 29 - - - - - - - 10.1 1016.0 4.0
22/12:30am W 19 26 - - - - - - - 10.1 1016.0 4.0
22/12:03am W 19 29 - - - - - - - 10.6 1015.6 4.0
22/12:00am W 20 25 - - - - - - - 10.7 1015.7 4.0
 
Date/Time
EST
Wind Sea
Height
m
Swell Vis
km
Cloud Weather Temp
°C
Press
hPa
Rain since
9am
mm
Dir  Spd
kts
Gust
kts
Height
m
Period
s
Dir
21/11:43pm W 18 28 - - - - - - - 10.8 1015.5 4.0
21/11:30pm W 17 25 - - - - - - - 10.8 1015.5 4.0
21/11:00pm W 19 29 - - - - - - - 10.7 1015.5 4.0
21/10:30pm W 21 32 - - - - - - - 10.6 1015.1 4.0
21/10:00pm W 23 35 - - - - - - - 10.9 1014.4 4.0
21/09:30pm W 23 38 - - - - - - - 10.8 1013.8 4.0
21/09:00pm W 29 43 - - - - - - - 10.8 1013.3 4.0
21/08:57pm W 31 43 - - - - - - - 10.9 1012.8 4.0
21/08:53pm WNW 19 40 - - - - - - - 10.8 1013.1 4.0
21/08:52pm WNW 18 40 - - - - - - - 10.8 1013.1 4.0
21/08:30pm W 31 45 - - - - - - - 11.1 1012.6 4.0
21/08:00pm W 32 45 - - - - - - - 11.0 1012.1 4.0
21/07:30pm W 26 39 - - - - - - - 11.0 1012.4 4.0
21/07:03pm W 25 35 - - - - - - - 11.2 1012.2 4.0
21/07:00pm W 27 35 - - - - - - - 11.2 1012.1 4.0
21/06:30pm W 26 40 - - - - - - - 11.7 1011.2 4.0
21/06:00pm W 29 43 - - - - - - - 11.8 1010.5 4.0
21/05:30pm W 24 35 - - - - - - - 12.1 1009.9 4.0
21/05:00pm W 25 38 - - - - - - - 12.4 1009.8 4.0
21/04:33pm W 26 38 - - - - - - - 12.6 1008.0 4.0
21/04:30pm W 26 35 - - - - - - - 12.5 1008.2 4.0
21/04:00pm W 28 46 - - - - - - - 14.5 1007.2 4.0
21/03:52pm W 20 42 - - - - - - - 15.2 1007.5 4.0
21/03:35pm W 15 29 - - - - - - - 15.3 1007.3 4.0
21/03:30pm W 13 27 - - - - - - - 15.2 1007.5 4.0
21/03:21pm WNW 15 29 - - - - - - - 15.2 1007.6 4.0
21/03:00pm W 9 23 - - - - - - - 15.3 1007.5 4.0
21/02:30pm W 11 29 - - - - - - - 14.9 1006.9 4.0
21/02:00pm NNW 10 34 - - - - - - - 13.3 1006.5 4.0
21/01:36pm W 18 49 - - - - - - - 14.6 1007.3 2.0
21/01:30pm W 33 49 - - - - - - - 15.0 1006.4 1.4
21/01:29pm W 20 49 - - - - - - - 15.2 1006.7 1.2
21/01:18pm W 15 27 - - - - - - - 17.3 1006.5 0.0
21/01:00pm WNW 10 14 - - - - - - - 19.4 1005.8 0.0
21/12:30pm NNW 15 23 - - - - - - - 19.3 1005.8 0.0
21/12:18pm NW 19 26 - - - - - - - 18.3 1005.7 0.0
21/12:00pm WNW 21 28 - - - - - - - 17.9 1005.3 0.0
21/11:55am WNW 17 27 - - - - - - - 18.2 1005.5 0.0
21/11:30am N 15 23 - - - - - - - 21.0 1005.2 0.0
21/11:00am NW 18 29 - - - - - - - 20.0 1005.2 0.0
21/10:57am NW 19 29 - - - - - - - 19.4 1005.2 0.0
21/10:50am WNW 20 27 - - - - - - - 19.2 1005.7 0.0
21/10:34am N 15 27 - - - - - - - 23.9 1005.6 0.0
21/10:30am N 13 22 - - - - - - - 23.7 1005.3 0.0
21/10:00am N 14 22 - - - - - - - 23.2 1005.6 0.0
21/09:30am NNE 15 23 - - - - - - - 23.2 1005.2 0.0
21/09:00am N 17 27 - - - - - - - 23.5 1005.9 0.0
21/08:33am N 15 28 - - - - - - - 23.1 1005.7 0.0
21/08:30am N 15 24 - - - - - - - 22.3 1005.8 0.0
21/08:27am N 16 25 - - - - - - - 22.1 1005.8 0.0
21/08:10am N 15 25 - - - - - - - 17.1 1005.3 0.0
21/08:00am NNE 14 22 - - - - - - - 13.9 1005.9 0.0
21/07:30am NNE 18 22 - - - - - - - 14.2 1005.0 0.0
21/07:00am NNE 18 22 - - - - - - - 14.5 1005.8 0.0
21/06:30am NNE 18 24 - - - - - - - 15.1 1006.4 0.0
21/06:00am NNE 21 31 - - - - - - - 16.0 1006.1 0.0
21/05:30am NNE 20 31 - - - - - - - 16.9 1006.5 0.0
21/05:00am NNE 20 34 - - - - - - - 17.1 1006.9 0.0
21/04:30am NNE 19 29 - - - - - - - 17.5 1007.2 0.0
21/04:25am NNE 18 29 - - - - - - - 17.5 1007.0 0.0
21/04:00am NNE 17 25 - - - - - - - 17.9 1007.5 0.0
21/03:30am NNE 17 25 - - - - - - - 17.7 1008.0 0.0
21/03:00am NNE 15 26 - - - - - - - 17.4 1008.7 0.0
21/02:55am NNE 16 26 - - - - - - - 17.3 1008.6 0.0
21/02:30am NNE 17 23 - - - - - - - 15.1 1008.9 0.0
21/02:00am NNE 16 21 - - - - - - - 13.8 1009.4 0.0
21/01:30am NNE 17 19 - - - - - - - 13.3 1010.0 0.0
21/01:00am NNE 12 14 - - - - - - - 13.2 1010.7 0.0
21/12:30am NNE 13 17 - - - - - - - 13.3 1011.2 0.0
21/12:00am NE 13 14 - - - - - - - 13.9 1011.6 0.0
 
Date/Time
EST
Wind Sea
Height
m
Swell Vis
km
Cloud Weather Temp
°C
Press
hPa
Rain since
9am
mm
Dir  Spd
kts
Gust
kts
Height
m
Period
s
Dir
20/11:30pm NNE 12 14 - - - - - - - 14.4 1011.9 0.0
20/11:00pm NNE 11 13 - - - - - - - 14.9 1012.6 0.0
20/10:30pm NE 14 16 - - - - - - - 14.2 1012.8 0.0
20/10:00pm NNE 15 17 - - - - - - - 14.9 1013.2 0.0
20/09:30pm NNE 11 16 - - - - - - - 18.4 1013.6 0.0
20/09:00pm NNE 10 15 - - - - - - - 19.9 1014.2 0.0
20/08:30pm NNE 11 18 - - - - - - - 19.9 1014.3 0.0
20/08:00pm NNE 12 17 - - - - - - - 19.5 1014.4 0.0
20/07:30pm NNE 13 19 - - - - - - - 19.4 1014.5 0.0
20/07:00pm NNE 14 20 - - - - - - - 19.3 1014.3 0.0
20/06:30pm NNE 13 16 - - - - - - - 18.2 1014.3 0.0
20/06:00pm NNE 12 16 - - - - - - - 19.3 1014.5 0.0
20/05:30pm NNE 12 17 - - - - - - - 19.3 1014.4 0.0
20/05:00pm NNE 13 18 - - - - - - - 18.8 1014.5 0.0
20/04:30pm NNE 13 15 - - - - - - - 15.7 1014.6 0.0
20/04:00pm NNE 13 15 - - - - - - - 17.7 1014.7 0.0
20/03:30pm NNE 12 15 - - - - - - - 17.5 1014.8 0.0
20/03:00pm NNE 14 15 - - - - - - - 18.5 1015.1 0.0
20/02:30pm NNE 13 14 - - - - - - - 15.4 1015.3 0.0
20/02:00pm NNE 14 15 - - - - - - - 15.8 1015.7 0.0
20/01:30pm NNE 13 15 - - - - - - - 15.4 1016.0 0.0
20/01:00pm NNE 10 11 - - - - - - - 16.6 1016.4 0.0
20/12:30pm NNE 8 10 - - - - - - - 17.9 1016.7 0.0
20/12:00pm NNE 10 16 - - - - - - - 17.8 1017.2 0.0
20/11:30am WSW 4 8 - - - - - - - 20.9 1017.4 0.0
20/11:00am WNW 4 6 - - - - - - - 20.4 1017.5 0.0
20/10:30am ENE 5 6 - - - - - - - 20.5 1017.4 0.0
20/10:00am N 6 9 - - - - - - - 17.9 1017.7 0.0
20/09:30am N 5 9 - - - - - - - 17.4 1017.9 0.0
20/09:00am NNE 3 6 - - - - - - - 18.7 1018.0 0.0
20/08:30am NNE 8 9 - - - - - - - 16.4 1017.9 0.0
20/08:00am NNE 11 13 - - - - - - - 15.3 1018.0 0.0
20/07:30am NNE 11 15 - - - - - - - 15.4 1018.0 0.0
20/07:00am NNE 10 13 - - - - - - - 16.1 1017.9 0.0
20/06:30am N 10 14 - - - - - - - 15.4 1017.8 0.0
20/06:00am N 3 6 - - - - - - - 18.0 1017.8 0.0
20/05:30am N 7 9 - - - - - - - 17.0 1017.4 0.0
20/05:00am NNE 10 11 - - - - - - - 16.3 1016.9 0.0
20/04:30am NNE 10 11 - - - - - - - 15.1 1016.6 0.0
20/04:00am NNE 12 13 - - - - - - - 14.3 1016.4 0.0
20/03:30am NNE 12 13 - - - - - - - 14.0 1016.3 0.0
20/03:00am NE 9 10 - - - - - - - 15.0 1016.4 0.0
20/02:30am NNE 11 13 - - - - - - - 14.4 1016.3 0.0
20/02:00am NNE 11 13 - - - - - - - 14.9 1016.4 0.0
20/01:30am NNE 12 15 - - - - - - - 15.3 1016.5 0.0
20/01:00am NNE 10 12 - - - - - - - 16.7 1016.8 0.0
20/12:30am NNE 11 15 - - - - - - - 16.1 1017.0 0.0
20/12:00am NNE 13 18 - - - - - - - 16.4 1017.0 0.0
 
Date/Time
EST
Wind Sea
Height
m
Swell Vis
km
Cloud Weather Temp
°C
Press
hPa
Rain since
9am
mm
Dir  Spd
kts
Gust
kts
Height
m
Period
s
Dir
19/11:30pm NNE 14 17 - - - - - - - 14.3 1016.7 0.0
19/11:00pm NNE 22 26 - - - - - - - 14.1 1015.9 0.0
19/10:30pm NNE 19 24 - - - - - - - 14.7 1016.3 0.0
19/10:00pm NNE 18 21 - - - - - - - 14.4 1016.7 0.0
19/09:30pm NNE 19 25 - - - - - - - 15.1 1016.7 0.0
19/09:00pm NNE 21 27 - - - - - - - 14.9 1016.9 0.0
19/08:30pm NNE 21 29 - - - - - - - 15.1 1016.9 0.0
19/08:00pm NNE 16 26 - - - - - - - 15.8 1017.2 0.0
19/07:59pm NNE 16 26 - - - - - - - 15.8 1017.2 0.0
19/07:30pm NNE 19 24 - - - - - - - 14.8 1017.4 0.0
19/07:00pm NNE 15 19 - - - - - - - 14.9 1017.9 0.0
19/06:30pm NNE 18 24 - - - - - - - 15.1 1017.9 0.0
19/06:00pm NNE 17 24 - - - - - - - 15.0 1018.2 0.0
19/05:30pm NNE 16 23 - - - - - - - 14.6 1018.1 0.0
19/05:00pm NNE 16 21 - - - - - - - 14.4 1018.5 0.0
19/04:30pm NNE 16 22 - - - - - - - 14.8 1018.6 0.0
19/04:00pm NNE 13 18 - - - - - - - 14.8 1019.0 0.0
19/03:30pm NNE 16 20 - - - - - - - 14.3 1019.2 0.0
19/03:00pm NNE 14 19 - - - - - - - 14.5 1019.7 0.0
19/02:30pm NNE 16 19 - - - - - - - 13.8 1019.9 0.0
19/02:00pm NNE 15 18 - - - - - - - 13.8 1020.2 0.0
19/01:30pm NE 14 18 - - - - - - - 13.9 1020.4 0.0
19/01:00pm NNE 14 17 - - - - - - - 14.3 1020.7 0.0
19/12:30pm NNE 14 18 - - - - - - - 14.1 1021.2 0.0
19/12:00pm NNE 15 18 - - - - - - - 14.2 1021.5 0.0
19/11:30am NNE 11 15 - - - - - - - 14.6 1021.9 0.0
19/11:00am NNE 11 15 - - - - - - - 14.9 1022.6 0.0
19/10:30am NNE 10 13 - - - - - - - 15.1 1023.0 0.0
19/10:00am NE 11 14 - - - - - - - 14.9 1023.4 0.0
19/09:30am NE 9 11 - - - - - - - 15.7 1023.7 0.0
19/09:00am NNE 10 12 - - - - - - - 15.4 1024.1 0.0
19/08:30am NNE 11 14 - - - - - - - 14.6 1024.0 0.0
19/08:00am NNE 10 12 - - - - - - - 14.0 1024.1 0.0

Other formats

Comma delimited format used in spreadsheet applications
http://www.bom.gov.au/fwo/IDV60701/IDV60701.94893.axf

JavaScript Object Notation format (JSON) in row-major order
http://www.bom.gov.au/fwo/IDV60701/IDV60701.94893.json

Data quality

Most of these data are generated automatically and are frequently updated. Quality checks on data are not normally performed. It is possible for incorrect values to appear. Refer to information at About Latest Weather Observations and please check the disclaimer before using these data.